createdAt,value
2024-02-22T00:00:55.715Z,99.57
2024-02-22T00:01:57.474Z,100.00
2024-02-22T00:02:59.086Z,98.39
2024-02-22T00:04:00.555Z,100.00
2024-02-22T00:05:02.221Z,100.00
2024-02-22T00:06:04.962Z,100.00
2024-02-22T00:07:06.873Z,98.75
2024-02-22T00:08:08.393Z,99.41
2024-02-22T00:09:10.059Z,98.93
2024-02-22T00:10:13.516Z,97.86
2024-02-22T00:11:16.243Z,98.56
2024-02-22T00:12:17.933Z,97.80
2024-02-22T00:13:19.474Z,99.25
2024-02-22T00:14:21.029Z,97.64
2024-02-22T00:15:22.645Z,97.21
2024-02-22T00:16:24.166Z,98.90
2024-02-22T00:17:25.900Z,97.77
2024-02-22T00:18:27.458Z,97.24
2024-02-22T00:19:29.716Z,99.13
2024-02-22T00:20:31.918Z,98.15
2024-02-22T00:21:33.419Z,95.76
2024-02-22T00:22:34.943Z,96.33
2024-02-22T00:23:36.514Z,98.84
2024-02-22T00:24:38.116Z,98.87
2024-02-22T00:25:39.851Z,98.48
2024-02-22T00:26:41.404Z,96.23
2024-02-22T00:27:43.080Z,97.10
2024-02-22T00:28:44.593Z,98.38
2024-02-22T00:29:46.137Z,97.61
2024-02-22T00:30:47.575Z,96.67
2024-02-22T00:31:49.470Z,95.60
2024-02-22T00:32:50.995Z,96.32
2024-02-22T00:33:52.506Z,96.31
2024-02-22T00:34:54.087Z,95.51
2024-02-22T00:35:55.714Z,94.29
2024-02-22T00:36:57.198Z,96.13
2024-02-22T00:37:58.783Z,96.25
2024-02-22T00:39:00.421Z,94.87
2024-02-22T00:40:05.033Z,96.74
2024-02-22T00:41:07.127Z,94.61
2024-02-22T00:42:08.602Z,95.29
2024-02-22T00:43:10.073Z,95.04
2024-02-22T00:44:11.637Z,96.43
2024-02-22T00:45:14.019Z,94.93
2024-02-22T00:46:15.520Z,95.58
2024-02-22T00:47:17.089Z,94.28
2024-02-22T00:48:18.840Z,93.61
2024-02-22T00:49:20.551Z,93.41
2024-02-22T00:50:22.169Z,93.87
2024-02-22T00:51:23.691Z,92.36
2024-02-22T00:52:25.243Z,92.50
2024-02-22T00:53:26.690Z,94.10
2024-02-22T00:54:28.148Z,93.59
2024-02-22T00:55:29.596Z,95.46
2024-02-22T00:56:31.066Z,92.56
2024-02-22T00:57:32.503Z,90.84
2024-02-22T00:58:34.063Z,92.97
2024-02-22T00:59:35.643Z,93.65
2024-02-22T01:00:37.476Z,94.42
2024-02-22T01:01:39.016Z,94.16
2024-02-22T01:02:40.532Z,93.91
2024-02-22T01:03:42.199Z,94.97
2024-02-22T01:04:46.709Z,95.98
2024-02-22T01:05:48.355Z,93.23
2024-02-22T01:06:49.974Z,92.58
2024-02-22T01:07:51.509Z,90.30
2024-02-22T01:08:53.037Z,93.15
2024-02-22T01:09:54.538Z,92.91
2024-02-22T01:10:56.088Z,92.89
2024-02-22T01:11:57.702Z,93.41
2024-02-22T01:12:59.193Z,92.72
2024-02-22T01:14:00.744Z,92.16
2024-02-22T01:15:02.835Z,92.56
2024-02-22T01:16:04.374Z,92.48
2024-02-22T01:17:06.065Z,91.22
2024-02-22T01:18:08.052Z,92.54
2024-02-22T01:19:09.650Z,93.21
2024-02-22T01:20:12.330Z,93.64
2024-02-22T01:21:14.249Z,92.56
2024-02-22T01:22:15.768Z,92.04
2024-02-22T01:23:17.457Z,89.83
2024-02-22T01:24:18.956Z,89.25
2024-02-22T01:25:20.398Z,90.13
2024-02-22T01:26:22.519Z,89.53
2024-02-22T01:27:24.187Z,89.97
2024-02-22T01:28:25.704Z,87.62
2024-02-22T01:29:28.086Z,88.53
2024-02-22T01:30:29.524Z,89.38
2024-02-22T01:31:31.975Z,88.02
2024-02-22T01:32:33.589Z,90.22
2024-02-22T01:33:35.517Z,87.98
2024-02-22T01:34:37.154Z,89.45
2024-02-22T01:35:38.651Z,87.66
2024-02-22T01:36:40.436Z,89.33
2024-02-22T01:37:42.737Z,88.44
2024-02-22T01:38:44.632Z,88.56
2024-02-22T01:39:47.145Z,88.13
2024-02-22T01:40:48.689Z,88.94
2024-02-22T01:41:50.171Z,87.92
2024-02-22T01:42:51.700Z,89.46
2024-02-22T01:43:53.943Z,87.33
2024-02-22T01:44:55.414Z,89.44
2024-02-22T01:45:58.471Z,89.01
2024-02-22T01:47:00.234Z,91.12
2024-02-22T01:48:02.080Z,88.37
2024-02-22T01:49:05.144Z,87.48
2024-02-22T01:50:09.310Z,87.20
2024-02-22T01:51:11.537Z,87.69
2024-02-22T01:52:12.944Z,88.91
2024-02-22T01:53:14.611Z,88.68
2024-02-22T01:54:16.155Z,88.46
2024-02-22T01:55:18.926Z,87.82
2024-02-22T01:56:21.645Z,88.44
2024-02-22T01:57:23.235Z,85.85
2024-02-22T01:58:25.977Z,87.29
2024-02-22T01:59:27.692Z,85.44
2024-02-22T02:00:29.744Z,85.69
2024-02-22T02:01:32.293Z,88.05
2024-02-22T02:02:34.260Z,86.49
2024-02-22T02:03:35.929Z,86.81
2024-02-22T02:04:38.945Z,87.99
2024-02-22T02:05:40.525Z,86.06
2024-02-22T02:06:42.069Z,87.39
2024-02-22T02:07:44.010Z,88.05
2024-02-22T02:08:45.679Z,86.95
2024-02-22T02:09:47.168Z,88.52
2024-02-22T02:10:48.966Z,88.52
2024-02-22T02:11:50.654Z,88.03
2024-02-22T02:12:52.243Z,88.80
2024-02-22T02:13:53.826Z,86.75
2024-02-22T02:14:57.588Z,90.74
2024-02-22T02:15:59.432Z,88.64
2024-02-22T02:17:00.993Z,89.59
2024-02-22T02:18:02.555Z,90.77
2024-02-22T02:19:10.099Z,89.51
2024-02-22T02:20:11.959Z,90.54
2024-02-22T02:21:40.881Z,89.50
2024-02-22T02:23:05.062Z,90.13
2024-02-22T02:24:14.617Z,88.79
2024-02-22T02:25:16.295Z,88.54
2024-02-22T02:26:19.043Z,90.75
2024-02-22T02:27:20.653Z,89.92
2024-02-22T02:28:22.193Z,87.09
2024-02-22T02:29:25.593Z,87.40
2024-02-22T02:30:27.063Z,88.31
2024-02-22T02:31:31.311Z,88.44
2024-02-22T02:32:33.011Z,87.55
2024-02-22T02:33:35.551Z,90.31
2024-02-22T02:34:37.061Z,87.88
2024-02-22T02:35:39.265Z,89.34
2024-02-22T02:36:40.855Z,89.49
2024-02-22T02:37:42.460Z,90.88
2024-02-22T02:38:43.940Z,89.59
2024-02-22T02:39:45.395Z,90.50
2024-02-22T02:40:46.924Z,89.61
2024-02-22T02:41:48.472Z,89.12
2024-02-22T02:42:49.985Z,87.95
2024-02-22T02:43:51.451Z,88.02
2024-02-22T02:44:52.956Z,90.44
2024-02-22T02:45:54.440Z,88.43
2024-02-22T02:46:55.990Z,87.74
2024-02-22T02:47:57.597Z,89.89
2024-02-22T02:48:59.207Z,89.23
2024-02-22T02:50:00.985Z,89.60
2024-02-22T02:51:05.052Z,86.67
2024-02-22T02:52:06.549Z,86.59
2024-02-22T02:53:08.014Z,86.68
2024-02-22T02:54:09.614Z,88.12
2024-02-22T02:55:13.740Z,89.71
2024-02-22T02:56:15.357Z,88.66
2024-02-22T02:57:16.890Z,87.56
2024-02-22T02:58:18.337Z,88.97
2024-02-22T02:59:19.930Z,88.68
2024-02-22T03:00:21.565Z,90.95
2024-02-22T03:01:23.049Z,89.55
2024-02-22T03:02:24.683Z,88.60
2024-02-22T03:03:26.245Z,90.13
2024-02-22T03:04:27.772Z,87.55
2024-02-22T03:05:29.614Z,89.99
2024-02-22T03:06:31.225Z,88.75
2024-02-22T03:07:32.758Z,88.98
2024-02-22T03:08:34.315Z,89.70
2024-02-22T03:09:35.780Z,87.92
2024-02-22T03:10:37.623Z,88.54
2024-02-22T03:11:39.318Z,88.51
2024-02-22T03:12:40.829Z,89.63
2024-02-22T03:13:42.358Z,88.45
2024-02-22T03:14:44.457Z,89.75
2024-02-22T03:15:49.375Z,90.10
2024-02-22T03:16:50.848Z,89.19
2024-02-22T03:17:52.377Z,88.92
2024-02-22T03:18:54.269Z,88.44
2024-02-22T03:19:57.759Z,89.24
2024-02-22T03:20:59.265Z,89.92
2024-02-22T03:22:00.869Z,89.86
2024-02-22T03:23:02.900Z,90.33
2024-02-22T03:24:05.024Z,90.01
2024-02-22T03:25:09.690Z,90.87
2024-02-22T03:26:11.157Z,91.25
2024-02-22T03:27:12.695Z,89.56
2024-02-22T03:28:16.193Z,90.18
2024-02-22T03:29:17.953Z,90.98
2024-02-22T03:30:19.559Z,91.36
2024-02-22T03:31:23.463Z,91.64
2024-02-22T03:32:25.097Z,92.88
2024-02-22T03:33:29.047Z,90.27
2024-02-22T03:34:30.694Z,92.14
2024-02-22T03:35:32.402Z,92.77
2024-02-22T03:36:34.084Z,91.46
2024-02-22T03:37:35.688Z,90.98
2024-02-22T03:38:38.705Z,90.75
2024-02-22T03:39:42.473Z,91.18
2024-02-22T03:40:44.033Z,92.22
2024-02-22T03:41:46.517Z,91.51
2024-02-22T03:42:48.544Z,92.75
2024-02-22T03:43:49.953Z,94.17
2024-02-22T03:44:51.393Z,94.19
2024-02-22T03:45:52.818Z,93.16
2024-02-22T03:46:54.254Z,92.90
2024-02-22T03:47:55.961Z,93.02
2024-02-22T03:48:57.649Z,92.28
2024-02-22T03:50:00.724Z,93.02
2024-02-22T03:51:04.477Z,93.34
2024-02-22T03:52:07.978Z,94.92
2024-02-22T03:53:11.572Z,95.27
2024-02-22T03:54:13.197Z,95.24
2024-02-22T03:55:14.708Z,93.64
2024-02-22T03:56:16.184Z,94.96
2024-02-22T03:57:17.655Z,95.55
2024-02-22T03:58:19.118Z,94.42
2024-02-22T03:59:20.626Z,94.68
2024-02-22T04:00:22.102Z,93.94
2024-02-22T04:01:23.604Z,93.92
2024-02-22T04:02:26.024Z,94.30
2024-02-22T04:03:28.872Z,94.85
2024-02-22T04:04:30.558Z,93.42
2024-02-22T04:05:32.406Z,95.75
2024-02-22T04:06:37.374Z,96.85
2024-02-22T04:07:43.261Z,96.57
2024-02-22T04:08:46.264Z,95.33
2024-02-22T04:09:47.742Z,96.96
2024-02-22T04:10:49.360Z,94.72
2024-02-22T04:11:51.141Z,95.82
2024-02-22T04:12:52.637Z,95.87
2024-02-22T04:13:54.403Z,94.66
2024-02-22T04:14:55.836Z,95.09
2024-02-22T04:15:58.024Z,96.55
2024-02-22T04:17:00.221Z,94.79
2024-02-22T04:18:01.788Z,95.62
2024-02-22T04:19:03.446Z,96.09
2024-02-22T04:20:05.601Z,96.49
2024-02-22T04:21:07.129Z,95.62
2024-02-22T04:22:08.723Z,97.18
2024-02-22T04:23:10.361Z,94.94
2024-02-22T04:24:11.872Z,96.46
2024-02-22T04:25:13.676Z,95.83
2024-02-22T04:26:15.294Z,94.25
2024-02-22T04:27:16.745Z,94.97
2024-02-22T04:28:19.887Z,94.38
2024-02-22T04:29:21.749Z,96.28
2024-02-22T04:30:23.289Z,96.53
2024-02-22T04:31:24.819Z,96.84
2024-02-22T04:32:26.434Z,97.39
2024-02-22T04:33:27.965Z,96.88
2024-02-22T04:34:29.540Z,97.67
2024-02-22T04:35:31.208Z,97.14
2024-02-22T04:36:32.666Z,96.82
2024-02-22T04:37:34.182Z,98.02
2024-02-22T04:38:35.721Z,98.32
2024-02-22T04:39:37.236Z,98.84
2024-02-22T04:40:39.046Z,98.55
2024-02-22T04:41:41.722Z,99.18
2024-02-22T04:42:43.245Z,98.86
2024-02-22T04:43:44.715Z,98.80
2024-02-22T04:44:46.318Z,99.01
2024-02-22T04:45:47.769Z,97.80
2024-02-22T04:46:49.282Z,99.65
2024-02-22T04:47:51.614Z,98.16
2024-02-22T04:48:53.130Z,99.05
2024-02-22T04:49:54.648Z,99.45
2024-02-22T04:50:56.202Z,98.94
2024-02-22T04:51:57.653Z,99.83
2024-02-22T04:53:00.820Z,99.32
2024-02-22T04:54:03.249Z,100.00
2024-02-22T04:55:05.272Z,99.77
2024-02-22T04:56:07.254Z,100.00
2024-02-22T04:57:08.722Z,100.00
2024-02-22T04:58:10.208Z,100.00
2024-02-22T04:59:11.791Z,100.00
2024-02-22T05:00:13.907Z,100.00
2024-02-22T05:01:15.496Z,100.00
2024-02-22T05:02:17.017Z,100.00
2024-02-22T05:03:18.559Z,100.00
2024-02-22T05:04:20.395Z,100.00
2024-02-22T05:05:22.210Z,100.00
2024-02-22T05:06:23.994Z,100.00
2024-02-22T05:07:25.444Z,99.20
2024-02-22T05:08:30.034Z,100.00
2024-02-22T05:09:32.118Z,100.00
2024-02-22T05:10:35.326Z,100.00
2024-02-22T05:11:37.175Z,100.00
2024-02-22T05:12:38.720Z,100.00
2024-02-22T05:13:42.356Z,100.00
2024-02-22T05:14:46.904Z,100.00
2024-02-22T05:15:48.930Z,100.00
2024-02-22T05:16:50.345Z,100.00
2024-02-22T05:17:51.928Z,100.00
2024-02-22T05:18:53.653Z,100.00
2024-02-22T05:19:55.254Z,100.00
2024-02-22T05:20:56.761Z,100.00
2024-02-22T05:21:58.195Z,100.00
2024-02-22T05:22:59.773Z,100.00
2024-02-22T05:24:01.596Z,100.00
2024-02-22T05:25:04.392Z,100.00
2024-02-22T05:26:05.930Z,100.00
2024-02-22T05:27:11.508Z,100.00
2024-02-22T05:28:12.953Z,100.00
2024-02-22T05:29:14.497Z,100.00
2024-02-22T05:30:16.036Z,100.00
2024-02-22T05:31:28.776Z,100.00
2024-02-22T05:32:30.508Z,100.00
2024-02-22T05:33:32.094Z,100.00
2024-02-22T05:34:33.764Z,100.00
2024-02-22T05:35:35.426Z,100.00
2024-02-22T05:36:36.854Z,100.00
2024-02-22T05:37:38.434Z,100.00
2024-02-22T05:38:41.482Z,100.00
2024-02-22T05:39:42.986Z,100.00
2024-02-22T05:40:44.572Z,100.00
2024-02-22T05:41:46.912Z,100.00
2024-02-22T05:42:49.748Z,100.00
2024-02-22T05:43:51.213Z,100.00
2024-02-22T05:44:52.700Z,100.00
2024-02-22T05:45:54.160Z,100.00
2024-02-22T05:46:55.669Z,100.00
2024-02-22T05:47:57.176Z,100.00
2024-02-22T05:48:58.845Z,100.00
2024-02-22T05:50:00.568Z,100.00
2024-02-22T05:51:02.251Z,100.00
2024-02-22T05:52:03.869Z,100.00
2024-02-22T05:53:05.424Z,100.00
2024-02-22T05:54:06.892Z,100.00
2024-02-22T05:55:08.820Z,100.00
2024-02-22T05:56:10.342Z,100.00
2024-02-22T05:57:13.476Z,100.00
2024-02-22T05:58:17.733Z,100.00
2024-02-22T05:59:19.239Z,100.00
2024-02-22T06:00:20.777Z,100.00
2024-02-22T06:01:22.303Z,100.00
2024-02-22T06:02:23.958Z,100.00
2024-02-22T06:03:25.551Z,100.00
2024-02-22T06:04:27.093Z,100.00
2024-02-22T06:05:29.434Z,100.00
2024-02-22T06:06:31.028Z,100.00
2024-02-22T06:07:32.583Z,100.00
2024-02-22T06:08:35.201Z,100.00
2024-02-22T06:09:36.735Z,100.00
2024-02-22T06:10:38.348Z,100.00
2024-02-22T06:11:41.087Z,100.00
2024-02-22T06:12:44.242Z,100.00
2024-02-22T06:13:46.761Z,100.00
2024-02-22T06:14:48.225Z,100.00
2024-02-22T06:15:49.701Z,100.00
2024-02-22T06:16:51.192Z,100.00
2024-02-22T06:17:52.750Z,100.00
2024-02-22T06:18:55.209Z,100.00
2024-02-22T06:19:56.779Z,100.00
2024-02-22T06:20:58.366Z,100.00
2024-02-22T06:22:00.073Z,100.00
2024-02-22T06:23:01.567Z,100.00
2024-02-22T06:24:03.513Z,100.00
2024-02-22T06:25:05.321Z,100.00
2024-02-22T06:26:06.897Z,100.00
2024-02-22T06:27:08.494Z,100.00
2024-02-22T06:28:11.032Z,100.00
2024-02-22T06:29:12.597Z,100.00
2024-02-22T06:30:15.690Z,100.00
2024-02-22T06:31:17.478Z,100.00
2024-02-22T06:32:19.092Z,100.00
2024-02-22T06:33:20.716Z,100.00
2024-02-22T06:34:22.362Z,100.00
2024-02-22T06:35:23.893Z,100.00
2024-02-22T06:36:25.374Z,100.00
2024-02-22T06:37:27.694Z,100.00
2024-02-22T06:38:29.410Z,100.00
2024-02-22T06:39:30.890Z,100.00
2024-02-22T06:40:32.535Z,100.00
2024-02-22T06:41:34.053Z,100.00
2024-02-22T06:42:35.750Z,100.00
2024-02-22T06:43:38.438Z,100.00
2024-02-22T06:44:40.033Z,100.00
2024-02-22T06:45:41.950Z,100.00
2024-02-22T06:46:44.520Z,100.00
2024-02-22T06:47:46.049Z,100.00
2024-02-22T06:48:49.446Z,100.00
2024-02-22T06:49:50.993Z,100.00
2024-02-22T06:50:52.502Z,100.00
2024-02-22T06:51:54.320Z,100.00
2024-02-22T06:52:55.822Z,100.00
2024-02-22T06:53:57.858Z,100.00
2024-02-22T06:54:59.317Z,100.00
2024-02-22T06:56:00.817Z,100.00
2024-02-22T06:57:04.255Z,100.00
2024-02-22T06:58:05.812Z,100.00
2024-02-22T06:59:07.794Z,100.00
2024-02-22T07:00:11.510Z,100.00
2024-02-22T07:01:13.013Z,100.00
2024-02-22T07:02:19.689Z,100.00
2024-02-22T07:03:21.209Z,100.00
2024-02-22T07:04:23.004Z,100.00
2024-02-22T07:05:24.552Z,100.00
2024-02-22T07:06:29.212Z,100.00
2024-02-22T07:07:30.706Z,100.00
2024-02-22T07:08:32.253Z,100.00
2024-02-22T07:09:33.739Z,100.00
2024-02-22T07:10:35.316Z,100.00
2024-02-22T07:11:37.176Z,100.00
2024-02-22T07:12:39.618Z,100.00
2024-02-22T07:13:41.109Z,100.00
2024-02-22T07:14:42.625Z,100.00
2024-02-22T07:15:44.062Z,100.00
2024-02-22T07:16:47.337Z,100.00
2024-02-22T07:17:49.240Z,100.00
2024-02-22T07:18:50.812Z,100.00
2024-02-22T07:19:52.384Z,100.00
2024-02-22T07:20:54.215Z,100.00
2024-02-22T07:21:55.980Z,100.00
2024-02-22T07:22:57.501Z,100.00
2024-02-22T07:23:59.018Z,100.00
2024-02-22T07:25:00.554Z,100.00
2024-02-22T07:26:02.285Z,100.00
2024-02-22T07:27:04.095Z,100.00
2024-02-22T07:28:06.684Z,100.00
2024-02-22T07:29:11.698Z,100.00
2024-02-22T07:30:15.078Z,100.00
2024-02-22T07:31:16.756Z,100.00
2024-02-22T07:32:18.358Z,100.00
2024-02-22T07:35:52.267Z,100.00
2024-02-22T07:36:53.779Z,100.00
2024-02-22T07:37:55.421Z,100.00
2024-02-22T07:38:58.433Z,100.00
2024-02-22T07:40:00.370Z,100.00
2024-02-22T07:41:06.723Z,100.00
2024-02-22T07:42:08.229Z,100.00
2024-02-22T07:43:10.964Z,100.00
2024-02-22T07:44:13.162Z,100.00
2024-02-22T07:45:15.261Z,100.00
2024-02-22T07:46:17.776Z,100.00
2024-02-22T07:47:19.382Z,100.00
2024-02-22T07:48:21.060Z,100.00
2024-02-22T07:49:22.775Z,100.00
2024-02-22T07:50:24.921Z,100.00
2024-02-22T07:51:26.597Z,100.00
2024-02-22T07:52:28.177Z,100.00
2024-02-22T07:53:34.668Z,100.00
2024-02-22T07:54:38.231Z,100.00
2024-02-22T07:55:40.088Z,100.00
2024-02-22T07:56:41.757Z,100.00
2024-02-22T07:57:43.194Z,100.00
2024-02-22T07:58:50.516Z,100.00
2024-02-22T07:59:56.988Z,100.00
2024-02-22T08:01:00.231Z,100.00
2024-02-22T08:02:01.959Z,100.00
2024-02-22T08:03:03.661Z,100.00
2024-02-22T08:04:05.428Z,100.00
2024-02-22T08:05:07.623Z,100.00
2024-02-22T08:06:10.492Z,100.00
2024-02-22T08:07:12.064Z,100.00
2024-02-22T08:08:16.014Z,100.00
2024-02-22T08:09:18.212Z,100.00
2024-02-22T08:10:19.746Z,100.00
2024-02-22T08:11:22.004Z,100.00
2024-02-22T08:12:23.945Z,100.00
2024-02-22T08:13:25.414Z,100.00
2024-02-22T08:14:26.924Z,100.00
2024-02-22T08:15:28.415Z,100.00
2024-02-22T08:16:30.228Z,100.00
2024-02-22T08:17:33.194Z,100.00
2024-02-22T08:18:39.793Z,100.00
2024-02-22T08:19:41.345Z,100.00
2024-02-22T08:20:43.039Z,100.00
2024-02-22T08:21:44.649Z,100.00
2024-02-22T08:22:46.547Z,100.00
2024-02-22T08:23:52.318Z,100.00
2024-02-22T08:24:54.984Z,100.00
2024-02-22T08:25:57.256Z,100.00
2024-02-22T08:26:58.750Z,100.00
2024-02-22T08:28:06.845Z,100.00
2024-02-22T08:29:09.535Z,100.00
2024-02-22T08:30:11.650Z,100.00
2024-02-22T08:31:16.201Z,100.00
2024-02-22T08:32:18.342Z,100.00
2024-02-22T08:33:25.714Z,100.00
2024-02-22T08:34:27.311Z,100.00
2024-02-22T08:35:29.150Z,100.00
2024-02-22T08:36:30.591Z,100.00
2024-02-22T08:37:32.095Z,100.00
2024-02-22T08:38:33.595Z,100.00
2024-02-22T08:39:35.121Z,100.00
2024-02-22T08:40:40.182Z,100.00
2024-02-22T08:41:42.223Z,100.00
2024-02-22T08:42:43.740Z,100.00
2024-02-22T08:43:45.270Z,100.00
2024-02-22T08:44:46.866Z,100.00
2024-02-22T08:45:49.669Z,100.00
2024-02-22T08:46:51.650Z,100.00
2024-02-22T08:47:53.372Z,100.00
2024-02-22T08:48:55.405Z,100.00
2024-02-22T08:49:58.373Z,100.00
2024-02-22T08:50:59.961Z,100.00
2024-02-22T08:52:05.239Z,100.00
2024-02-22T08:53:07.026Z,100.00
2024-02-22T08:54:08.587Z,100.00
2024-02-22T08:55:13.589Z,100.00
2024-02-22T08:56:15.691Z,100.00
2024-02-22T08:57:17.412Z,100.00
2024-02-22T08:58:18.881Z,100.00
2024-02-22T08:59:20.360Z,100.00
2024-02-22T09:00:21.988Z,100.00
2024-02-22T09:01:25.116Z,100.00
2024-02-22T09:02:26.684Z,100.00
2024-02-22T09:03:28.223Z,100.00
2024-02-22T09:04:29.769Z,100.00
2024-02-22T09:05:31.412Z,100.00
2024-02-22T09:06:33.142Z,100.00
2024-02-22T09:07:35.785Z,100.00
2024-02-22T09:08:40.304Z,100.00
2024-02-22T09:09:41.794Z,100.00
2024-02-22T09:10:43.339Z,100.00
2024-02-22T09:11:44.947Z,100.00
2024-02-22T09:12:46.545Z,100.00
2024-02-22T09:13:48.112Z,100.00
2024-02-22T09:14:49.654Z,100.00
2024-02-22T09:15:51.178Z,100.00
2024-02-22T09:16:52.699Z,100.00
2024-02-22T09:17:54.234Z,100.00
2024-02-22T09:18:55.769Z,100.00
2024-02-22T09:19:57.337Z,100.00
2024-02-22T09:20:58.813Z,100.00
2024-02-22T09:22:01.668Z,100.00
2024-02-22T09:23:03.309Z,100.00
2024-02-22T09:24:05.516Z,100.00
2024-02-22T09:25:07.766Z,100.00
2024-02-22T09:26:09.619Z,100.00
2024-02-22T09:27:13.385Z,100.00
2024-02-22T09:28:16.408Z,100.00
2024-02-22T09:29:17.980Z,100.00
2024-02-22T09:30:19.577Z,100.00
2024-02-22T09:31:21.123Z,100.00
2024-02-22T09:32:22.742Z,100.00
2024-02-22T09:33:24.322Z,100.00
2024-02-22T09:34:26.234Z,100.00
2024-02-22T09:35:27.971Z,100.00
2024-02-22T09:36:29.537Z,100.00
2024-02-22T09:37:32.225Z,100.00
2024-02-22T09:38:35.833Z,100.00
2024-02-22T09:39:39.195Z,100.00
2024-02-22T09:40:40.736Z,100.00
2024-02-22T09:41:43.725Z,100.00
2024-02-22T09:42:45.320Z,100.00
2024-02-22T09:43:46.856Z,100.00
2024-02-22T09:44:48.395Z,100.00
2024-02-22T09:45:49.943Z,100.00
2024-02-22T09:46:54.810Z,100.00
2024-02-22T09:47:56.539Z,100.00
2024-02-22T09:48:58.247Z,100.00
2024-02-22T09:50:02.541Z,100.00
2024-02-22T09:51:06.829Z,100.00
2024-02-22T09:52:09.564Z,100.00
2024-02-22T09:53:12.166Z,100.00
2024-02-22T09:54:14.623Z,100.00
2024-02-22T09:55:18.315Z,100.00
2024-02-22T09:56:19.983Z,100.00
2024-02-22T09:57:21.513Z,100.00
2024-02-22T09:58:24.642Z,100.00
2024-02-22T09:59:26.250Z,100.00
2024-02-22T10:00:27.780Z,100.00
2024-02-22T10:01:29.951Z,100.00
2024-02-22T10:02:31.775Z,100.00
2024-02-22T10:03:36.289Z,100.00
2024-02-22T10:04:37.908Z,100.00
2024-02-22T10:05:40.306Z,100.00
2024-02-22T10:06:41.971Z,100.00
2024-02-22T10:07:44.390Z,100.00
2024-02-22T10:08:48.159Z,100.00
2024-02-22T10:09:49.763Z,100.00
2024-02-22T10:10:52.969Z,100.00
2024-02-22T10:11:55.014Z,100.00
2024-02-22T10:12:58.114Z,100.00
2024-02-22T10:14:03.048Z,100.00
2024-02-22T10:15:09.121Z,100.00
2024-02-22T10:16:18.412Z,100.00
2024-02-22T10:17:30.958Z,100.00
2024-02-22T10:18:33.994Z,100.00
2024-02-22T10:19:35.749Z,100.00
2024-02-22T10:20:37.782Z,100.00
2024-02-22T10:21:40.096Z,100.00
2024-02-22T10:22:41.604Z,100.00
2024-02-22T10:23:45.730Z,100.00
2024-02-22T10:24:47.177Z,100.00
2024-02-22T10:25:48.947Z,100.00
2024-02-22T10:26:51.611Z,100.00
2024-02-22T10:27:54.037Z,100.00
2024-02-22T10:29:09.398Z,100.00
2024-02-22T10:30:14.984Z,100.00
2024-02-22T10:31:20.404Z,100.00
2024-02-22T10:32:22.348Z,100.00
2024-02-22T10:33:24.642Z,100.00
2024-02-22T10:34:27.102Z,100.00
2024-02-22T10:35:29.935Z,100.00
2024-02-22T10:36:31.679Z,100.00
2024-02-22T10:37:34.618Z,100.00
2024-02-22T10:38:37.719Z,100.00
2024-02-22T10:39:39.727Z,100.00
2024-02-22T10:40:44.953Z,100.00
2024-02-22T10:41:49.075Z,100.00
2024-02-22T10:42:54.215Z,100.00
2024-02-22T10:43:58.572Z,100.00
2024-02-22T10:45:00.162Z,100.00
2024-02-22T10:46:04.165Z,100.00
2024-02-22T10:47:06.381Z,100.00
2024-02-22T10:48:10.990Z,100.00
2024-02-22T10:49:14.278Z,100.00
2024-02-22T10:50:23.892Z,100.00
2024-02-22T10:51:29.605Z,100.00
2024-02-22T10:52:33.562Z,100.00
2024-02-22T10:53:38.463Z,100.00
2024-02-22T10:54:42.119Z,100.00
2024-02-22T10:55:51.382Z,100.00
2024-02-22T10:56:53.794Z,100.00
2024-02-22T10:57:57.457Z,100.00
2024-02-22T10:59:02.887Z,100.00
2024-02-22T11:00:06.418Z,100.00
2024-02-22T11:01:12.120Z,100.00
2024-02-22T11:02:14.324Z,100.00
2024-02-22T11:03:17.644Z,100.00
2024-02-22T11:04:20.679Z,100.00
2024-02-22T11:05:23.323Z,100.00
2024-02-22T11:06:24.973Z,100.00
2024-02-22T11:07:28.901Z,100.00
2024-02-22T11:08:31.032Z,100.00
2024-02-22T11:09:40.204Z,100.00
2024-02-22T11:10:44.705Z,100.00
2024-02-22T11:11:52.847Z,100.00
2024-02-22T11:12:54.522Z,100.00
2024-02-22T11:13:57.891Z,100.00
2024-02-22T11:15:07.744Z,100.00
2024-02-22T11:16:16.843Z,100.00
2024-02-22T11:17:19.645Z,100.00
2024-02-22T11:18:25.823Z,100.00
2024-02-22T11:19:27.971Z,100.00
2024-02-22T11:20:36.647Z,100.00
2024-02-22T11:21:39.181Z,100.00
2024-02-22T11:22:40.796Z,100.00
2024-02-22T11:23:42.861Z,100.00
2024-02-22T11:24:44.668Z,100.00
2024-02-22T11:25:47.237Z,100.00
2024-02-22T11:26:49.858Z,100.00
2024-02-22T11:27:59.414Z,100.00
2024-02-22T11:29:01.775Z,100.00
2024-02-22T11:30:16.332Z,100.00
2024-02-22T11:31:17.805Z,100.00
2024-02-22T11:32:22.269Z,100.00
2024-02-22T11:33:24.421Z,100.00
2024-02-22T11:34:27.332Z,100.00
2024-02-22T11:35:29.216Z,100.00
2024-02-22T11:36:31.398Z,100.00
2024-02-22T11:37:32.893Z,100.00
2024-02-22T11:38:34.539Z,100.00
2024-02-22T11:39:36.063Z,100.00
2024-02-22T11:40:37.990Z,100.00
2024-02-22T11:41:39.659Z,100.00
2024-02-22T11:42:41.102Z,100.00
2024-02-22T11:43:44.437Z,100.00
2024-02-22T11:44:46.736Z,100.00
2024-02-22T11:45:48.208Z,100.00
2024-02-22T11:46:49.941Z,100.00
2024-02-22T11:47:52.798Z,100.00
2024-02-22T11:48:54.437Z,100.00
2024-02-22T11:49:56.013Z,100.00
2024-02-22T11:50:58.211Z,100.00
2024-02-22T11:51:59.781Z,100.00
2024-02-22T11:53:03.802Z,100.00
2024-02-22T11:54:05.542Z,100.00
2024-02-22T11:55:11.196Z,100.00
2024-02-22T11:56:12.662Z,100.00
2024-02-22T11:57:15.160Z,100.00
2024-02-22T11:58:17.415Z,100.00
2024-02-22T11:59:19.307Z,100.00
2024-02-22T12:00:20.892Z,100.00
2024-02-22T12:01:23.085Z,100.00
2024-02-22T12:02:24.914Z,100.00
2024-02-22T12:03:26.675Z,100.00
2024-02-22T12:04:33.829Z,100.00
2024-02-22T12:05:35.994Z,100.00
2024-02-22T12:06:38.934Z,100.00
2024-02-22T12:07:41.674Z,100.00
2024-02-22T12:08:43.770Z,100.00
2024-02-22T12:09:45.886Z,100.00
2024-02-22T12:10:49.171Z,100.00
2024-02-22T12:11:51.730Z,100.00
2024-02-22T12:12:53.626Z,100.00
2024-02-22T12:13:59.985Z,100.00
2024-02-22T12:15:05.854Z,100.00
2024-02-22T12:16:08.865Z,100.00
2024-02-22T12:17:13.342Z,100.00
2024-02-22T12:18:18.311Z,100.00
2024-02-22T12:19:20.137Z,100.00
2024-02-22T12:20:27.721Z,100.00
2024-02-22T12:21:30.668Z,100.00
2024-02-22T12:22:33.722Z,100.00
2024-02-22T12:23:35.949Z,100.00
2024-02-22T12:24:37.500Z,100.00
2024-02-22T12:25:38.981Z,100.00
2024-02-22T12:26:40.511Z,100.00
2024-02-22T12:27:42.351Z,100.00
2024-02-22T12:28:43.962Z,100.00
2024-02-22T12:29:50.370Z,100.00
2024-02-22T12:30:53.415Z,100.00
2024-02-22T12:32:06.022Z,100.00
2024-02-22T12:33:11.168Z,100.00
2024-02-22T12:34:17.009Z,100.00
2024-02-22T12:35:19.629Z,100.00
2024-02-22T12:36:23.106Z,100.00
2024-02-22T12:37:24.815Z,100.00
2024-02-22T12:38:26.340Z,100.00
2024-02-22T12:39:27.870Z,100.00
2024-02-22T12:40:29.296Z,100.00
2024-02-22T12:41:30.875Z,100.00
2024-02-22T12:42:32.428Z,100.00
2024-02-22T12:43:34.076Z,100.00
2024-02-22T12:44:35.568Z,100.00
2024-02-22T12:45:37.038Z,100.00
2024-02-22T12:46:39.552Z,100.00
2024-02-22T12:47:42.467Z,100.00
2024-02-22T12:48:44.648Z,100.00
2024-02-22T12:49:46.367Z,100.00
2024-02-22T12:50:48.103Z,100.00
2024-02-22T12:51:49.691Z,100.00
2024-02-22T12:52:51.220Z,100.00
2024-02-22T12:53:52.718Z,100.00
2024-02-22T12:54:54.204Z,100.00
2024-02-22T12:55:56.290Z,100.00
2024-02-22T12:56:57.787Z,100.00
2024-02-22T12:57:59.486Z,100.00
2024-02-22T12:59:06.598Z,100.00
2024-02-22T13:00:10.296Z,100.00
2024-02-22T13:01:12.027Z,100.00
2024-02-22T13:02:13.757Z,100.00
2024-02-22T13:03:15.658Z,100.00
2024-02-22T13:04:17.280Z,100.00
2024-02-22T13:05:18.837Z,100.00
2024-02-22T13:06:20.433Z,100.00
2024-02-22T13:07:21.929Z,100.00
2024-02-22T13:08:29.879Z,100.00
2024-02-22T13:09:32.806Z,100.00
2024-02-22T13:10:34.360Z,100.00
2024-02-22T13:11:36.283Z,100.00